Terminal Aerodrome Forecast
Issued by NWS Charleston, SC

Home | Current Version | Previous Version | Text Only | Print | Product List | Glossary On
Versions: 1 2 3 4 5 6 7 8 9 10 11 12 13 14 15 16 17 18 19 20
000
FTUS42 KCHS 221100
TAFSAV
TAF
KSAV 221129Z 2212/2312 36005KT 2SM -DZ BR OVC003
     FM221500 05005KT 4SM -RADZ BR OVC005
     FM230000 VRB04KT 3/4SM BR VCSH OVC004=

USA.gov is the U.S. government's official web portal to all federal, state and local government web resources and services.